createdAt,value
2016-07-25T06:36:06.879Z,1244
2016-07-25T06:37:06.900Z,1216
2016-07-25T06:38:06.927Z,1172
2016-07-25T06:39:06.952Z,1128
2016-07-25T06:40:06.977Z,1088
2016-07-25T06:41:07.001Z,1076
2016-07-25T06:42:07.033Z,1084
2016-07-25T06:43:07.057Z,1128
2016-07-25T06:44:07.083Z,1184
2016-07-25T06:45:07.127Z,1252
2016-07-25T06:47:07.173Z,1412
2016-07-25T06:48:07.198Z,1500
2016-07-25T06:49:07.221Z,1568
2016-07-25T06:51:07.275Z,1628
2016-07-25T06:52:07.302Z,1648
2016-07-25T06:53:07.331Z,1664
2016-07-25T06:54:07.357Z,1712
2016-07-25T06:55:07.383Z,1768
2016-07-25T06:56:08.115Z,1828
2016-07-25T06:57:07.445Z,1896
2016-07-25T06:58:07.463Z,2012
2016-07-25T06:59:07.488Z,2068
2016-07-25T07:00:07.525Z,2032
2016-07-25T07:01:07.548Z,1960
2016-07-25T07:02:07.569Z,1908
2016-07-25T07:03:07.595Z,1864
2016-07-25T07:04:07.632Z,1812
2016-07-25T07:05:07.656Z,1752
2016-07-25T07:06:07.678Z,1696
2016-07-25T07:07:07.709Z,1692
2016-07-25T07:08:07.733Z,1732
2016-07-25T07:09:07.758Z,1760
2016-07-25T07:10:07.790Z,1732
2016-07-25T07:11:07.815Z,1652
2016-07-25T07:12:07.839Z,1568
2016-07-25T07:13:07.868Z,1508
2016-07-25T07:14:07.908Z,1448
2016-07-25T07:15:07.924Z,1412
2016-07-25T07:16:07.951Z,1412
2016-07-25T07:17:07.977Z,1428
2016-07-25T07:18:08.003Z,1456
2016-07-25T07:19:08.729Z,1524
2016-07-25T07:20:08.263Z,1656
2016-07-25T07:21:08.084Z,1860
2016-07-25T07:22:09.338Z,2124
2016-07-25T07:23:08.162Z,2408
2016-07-25T07:24:08.166Z,2768
2016-07-25T07:25:08.203Z,3176
2016-07-25T07:26:08.222Z,3656
2016-07-25T07:27:08.244Z,4212
2016-07-25T07:28:08.271Z,4904
2016-07-25T07:29:09.004Z,5824
2016-07-25T07:30:08.331Z,18112
2016-07-25T07:31:08.370Z,14156
2016-07-25T07:32:08.390Z,11124
2016-07-25T07:33:08.415Z,28640
2016-07-25T07:34:08.433Z,20544
2016-07-25T07:35:08.482Z,15664
2016-07-25T07:36:08.489Z,17780
2016-07-25T07:37:08.518Z,10632
2016-07-25T07:38:08.551Z,9104
2016-07-25T07:39:08.574Z,11324
2016-07-25T07:40:08.602Z,11832
2016-07-25T07:41:08.630Z,10196
2016-07-25T07:42:08.658Z,11716
2016-07-25T07:43:08.683Z,10808
2016-07-25T07:44:08.711Z,17920
2016-07-25T07:45:08.739Z,14968
2016-07-25T07:46:08.781Z,8868
2016-07-25T07:47:08.796Z,8676
2016-07-25T07:48:08.822Z,8296
2016-07-25T07:49:08.851Z,8040
2016-07-25T07:50:08.877Z,7420
2016-07-25T07:51:08.908Z,8396
2016-07-25T07:52:08.939Z,7628
2016-07-25T07:53:08.964Z,10388
2016-07-25T07:54:08.999Z,8476
2016-07-25T07:55:09.019Z,11060
2016-07-25T07:56:09.050Z,11700
2016-07-25T07:57:09.074Z,14700
2016-07-25T07:58:09.110Z,13832
2016-07-25T07:59:09.162Z,15648
2016-07-25T08:00:09.172Z,12444
2016-07-25T08:01:09.198Z,9496
2016-07-25T08:02:09.224Z,8612
2016-07-25T08:03:09.268Z,7932
2016-07-25T08:04:09.284Z,8992
2016-07-25T08:05:09.312Z,5780
2016-07-25T08:06:10.034Z,4528
2016-07-25T08:07:09.363Z,3964
2016-07-25T08:08:09.400Z,3636
2016-07-25T08:09:09.421Z,3576
2016-07-25T08:10:09.456Z,3728
2016-07-25T08:11:09.478Z,4056
2016-07-25T08:12:09.509Z,4452
2016-07-25T08:13:09.540Z,4832
2016-07-25T08:14:09.567Z,5108
2016-07-25T08:15:09.596Z,5296
2016-07-25T08:16:09.635Z,5328
2016-07-25T08:17:09.655Z,5400
2016-07-25T08:18:09.683Z,5712
2016-07-25T08:19:09.713Z,6344
2016-07-25T08:20:09.740Z,6460
2016-07-25T08:21:09.770Z,6956
2016-07-25T08:22:09.799Z,7560
2016-07-25T08:23:09.822Z,7784
2016-07-25T08:24:09.867Z,7632
2016-07-25T08:25:09.888Z,7112
2016-07-25T08:26:09.914Z,6800
2016-07-25T08:27:09.942Z,6524
2016-07-25T08:28:09.969Z,6412
2016-07-25T08:29:10.005Z,6456
2016-07-25T08:30:10.030Z,6588
2016-07-25T08:31:10.058Z,6636
2016-07-25T08:32:10.105Z,6576
2016-07-25T08:33:10.120Z,6372
2016-07-25T08:34:10.243Z,6100
2016-07-25T08:35:10.174Z,5920
2016-07-25T08:36:10.203Z,6164
2016-07-25T08:37:10.234Z,6312
2016-07-25T08:38:10.260Z,6388
2016-07-25T08:39:10.291Z,6376
2016-07-25T08:40:10.315Z,6200
2016-07-25T08:41:10.347Z,5844
2016-07-25T08:42:10.375Z,5304
2016-07-25T08:43:10.406Z,4828
2016-07-25T08:44:10.435Z,4680
2016-07-25T08:45:10.465Z,4580
2016-07-25T08:46:10.496Z,4484
2016-07-25T08:47:10.525Z,4560
2016-07-25T08:48:10.553Z,4828
2016-07-25T08:49:10.580Z,5004
2016-07-25T08:50:10.613Z,5324
2016-07-25T08:51:10.642Z,5564
2016-07-25T08:52:10.667Z,5744
2016-07-25T08:53:10.698Z,5812
2016-07-25T08:54:10.726Z,5948
2016-07-25T08:55:10.756Z,6068
2016-07-25T08:56:10.785Z,6112
2016-07-25T08:57:10.823Z,6196
2016-07-25T08:58:10.844Z,6348
2016-07-25T08:59:10.872Z,6340
2016-07-25T09:00:11.113Z,6384
2016-07-25T09:01:10.940Z,6372
2016-07-25T09:02:10.969Z,6656
2016-07-25T09:03:10.998Z,6724
2016-07-25T09:04:11.024Z,6832
2016-07-25T09:05:11.056Z,6464
2016-07-25T09:06:11.082Z,6072
2016-07-25T09:07:11.123Z,5612
2016-07-25T09:08:11.140Z,5424
2016-07-25T09:09:11.166Z,5420
2016-07-25T09:10:12.164Z,5444
2016-07-25T09:11:11.227Z,5516
2016-07-25T09:12:11.256Z,5600
2016-07-25T09:13:11.286Z,5900
2016-07-25T09:14:11.317Z,6052
2016-07-25T09:15:11.344Z,6312
2016-07-25T09:16:11.371Z,6544
2016-07-25T09:17:11.405Z,6560
2016-07-25T09:18:11.430Z,6520
2016-07-25T09:19:11.458Z,6412
2016-07-25T09:20:11.487Z,6632
2016-07-25T09:21:11.516Z,6588
2016-07-25T09:22:11.686Z,6408
2016-07-25T09:23:11.574Z,6468
2016-07-25T09:24:11.597Z,6408
2016-07-25T09:25:11.628Z,6356
2016-07-25T09:26:11.653Z,6336
2016-07-25T09:27:11.685Z,6272
2016-07-25T09:28:11.714Z,6092
2016-07-25T09:29:11.742Z,5812
2016-07-25T09:30:11.768Z,5332
2016-07-25T09:31:11.802Z,4792
2016-07-25T09:32:11.828Z,4576
2016-07-25T09:33:11.854Z,4532
2016-07-25T09:34:11.884Z,4552
2016-07-25T09:35:11.911Z,4596
2016-07-25T09:36:11.990Z,4640
2016-07-25T09:37:11.970Z,4612
2016-07-25T09:38:11.998Z,4516
2016-07-25T09:39:12.023Z,4348
2016-07-25T09:40:12.058Z,4176
2016-07-25T09:41:12.086Z,4056
2016-07-25T09:42:12.114Z,4028
2016-07-25T09:43:12.149Z,4120
2016-07-25T09:44:12.178Z,4308
2016-07-25T09:45:12.200Z,4544
2016-07-25T09:46:12.229Z,4836
2016-07-25T09:47:12.258Z,5096
2016-07-25T09:48:12.306Z,5244
2016-07-25T09:49:12.315Z,5340
2016-07-25T09:50:12.346Z,5352
2016-07-25T09:51:12.374Z,5356
2016-07-25T09:52:12.405Z,5356
2016-07-25T09:53:12.432Z,5320
2016-07-25T09:54:12.458Z,5312
2016-07-25T09:55:12.491Z,5472
2016-07-25T09:56:12.522Z,5600
2016-07-25T09:57:12.555Z,5804
2016-07-25T09:58:12.591Z,6060
2016-07-25T09:59:12.618Z,6160
2016-07-25T10:00:12.638Z,6316
2016-07-25T10:01:12.669Z,6272
2016-07-25T10:02:12.699Z,6276
2016-07-25T10:03:12.724Z,6232
2016-07-25T10:04:12.756Z,6144
2016-07-25T10:05:12.788Z,6068
2016-07-25T10:06:12.817Z,5924
2016-07-25T10:07:12.846Z,5884
2016-07-25T10:08:12.869Z,5848
2016-07-25T10:09:12.905Z,5852
2016-07-25T10:10:12.936Z,5856
2016-07-25T10:11:12.964Z,5864
2016-07-25T10:12:12.995Z,5860
2016-07-25T10:13:13.020Z,5880
2016-07-25T10:14:13.053Z,5944
2016-07-25T10:15:13.083Z,6072
2016-07-25T10:16:13.110Z,6152
2016-07-25T10:17:13.146Z,6176
2016-07-25T10:18:13.868Z,6132
2016-07-25T10:19:13.200Z,6048
2016-07-25T10:20:13.228Z,5960
2016-07-25T10:21:13.273Z,5884
2016-07-25T10:22:13.294Z,5872
2016-07-25T10:23:13.323Z,5836
2016-07-25T10:24:13.358Z,5896
2016-07-25T10:25:13.379Z,5984
2016-07-25T10:26:13.408Z,6020
2016-07-25T10:27:13.441Z,5928
2016-07-25T10:28:13.467Z,5928
2016-07-25T10:29:13.500Z,5912
2016-07-25T10:30:13.530Z,6040
2016-07-25T10:31:13.559Z,6052
2016-07-25T10:32:13.590Z,6040
2016-07-25T10:33:13.620Z,6080
2016-07-25T10:34:13.649Z,6088
2016-07-25T10:35:13.678Z,6020
2016-07-25T10:36:13.721Z,5924
2016-07-25T10:37:13.744Z,5904
2016-07-25T10:38:13.775Z,5812
2016-07-25T10:39:13.801Z,5764
2016-07-25T10:40:13.831Z,5784
2016-07-25T10:41:13.860Z,5700
2016-07-25T10:42:13.887Z,5728
2016-07-25T10:43:13.921Z,5844
2016-07-25T10:44:13.948Z,5832
2016-07-25T10:45:13.981Z,5572
2016-07-25T10:46:14.011Z,5480
2016-07-25T10:47:14.037Z,5368
2016-07-25T10:48:14.070Z,4836
2016-07-25T10:49:14.108Z,4764
2016-07-25T10:50:14.224Z,4932
2016-07-25T10:51:14.164Z,4916
2016-07-25T10:52:14.186Z,5028
2016-07-25T10:53:14.218Z,5052
2016-07-25T10:54:14.249Z,5376
2016-07-25T10:55:14.284Z,5376
2016-07-25T10:56:14.309Z,5276
2016-07-25T10:57:14.335Z,5288
2016-07-25T10:58:14.368Z,5208
2016-07-25T10:59:14.399Z,5180
2016-07-25T11:00:14.426Z,5152
2016-07-25T11:01:14.459Z,5352
2016-07-25T11:02:14.488Z,5496
2016-07-25T11:03:15.216Z,5616
2016-07-25T11:04:14.544Z,5632
2016-07-25T11:05:14.579Z,5564
2016-07-25T11:06:14.603Z,5716
2016-07-25T11:07:14.636Z,5872
2016-07-25T11:08:14.682Z,6452
2016-07-25T11:09:14.696Z,6472
2016-07-25T11:10:14.725Z,6416
2016-07-25T11:11:14.758Z,6200
2016-07-25T11:12:14.789Z,5724
2016-07-25T11:13:14.815Z,5484
2016-07-25T11:14:14.846Z,5192
2016-07-25T11:15:14.879Z,4456
2016-07-25T11:16:14.909Z,4096
2016-07-25T11:17:14.935Z,3988
2016-07-25T11:18:14.969Z,3908
2016-07-25T11:19:15.001Z,4036
2016-07-25T11:20:15.030Z,4020
2016-07-25T11:21:15.063Z,4260
2016-07-25T11:22:15.087Z,4116
2016-07-25T11:23:15.125Z,4364
2016-07-25T11:24:15.149Z,4504
2016-07-25T11:25:15.180Z,4772
2016-07-25T11:26:15.211Z,5160
2016-07-25T11:27:15.242Z,4648
2016-07-25T11:28:15.276Z,4176
2016-07-25T11:29:15.300Z,4408
2016-07-25T11:30:15.330Z,4848
2016-07-25T11:31:15.361Z,4716
2016-07-25T11:32:15.389Z,4672
2016-07-25T11:33:15.423Z,4632
2016-07-25T11:34:15.451Z,4484
2016-07-25T11:35:15.483Z,4260
2016-07-25T11:36:16.521Z,3940
2016-07-25T11:37:15.544Z,3500
2016-07-25T11:38:15.586Z,3044
2016-07-25T11:39:15.601Z,2656
2016-07-25T11:40:15.635Z,2564
2016-07-25T11:41:15.667Z,2676
2016-07-25T11:42:15.695Z,3116
2016-07-25T11:43:15.726Z,3480
2016-07-25T11:44:15.752Z,3460
2016-07-25T11:45:15.794Z,3548
2016-07-25T11:46:15.817Z,3764
2016-07-25T11:47:15.845Z,3680
2016-07-25T11:48:15.876Z,3364
2016-07-25T11:49:15.904Z,3176
2016-07-25T11:50:15.937Z,3316
2016-07-25T11:51:15.965Z,3436
2016-07-25T11:52:15.997Z,3708
2016-07-25T11:53:16.025Z,4048
2016-07-25T11:54:16.054Z,4572
2016-07-25T11:55:16.086Z,4420
2016-07-25T11:56:16.126Z,4268
2016-07-25T11:57:16.144Z,4272
2016-07-25T11:58:16.176Z,4320
2016-07-25T11:59:16.204Z,4324
2016-07-25T12:00:16.236Z,4288
2016-07-25T12:01:16.279Z,4264
2016-07-25T12:02:16.297Z,3904
2016-07-25T12:03:16.326Z,3556
2016-07-25T12:04:16.358Z,3408
2016-07-25T12:05:16.388Z,3384
2016-07-25T12:06:16.415Z,3512
2016-07-25T12:07:16.449Z,3960
2016-07-25T12:08:16.493Z,4504
2016-07-25T12:09:16.504Z,4464
2016-07-25T12:10:16.538Z,4604
2016-07-25T12:11:16.578Z,5000
2016-07-25T12:12:17.296Z,4976
2016-07-25T12:13:16.627Z,4868
2016-07-25T12:14:16.657Z,4644
2016-07-25T12:15:16.687Z,3996
2016-07-25T12:16:16.720Z,4316
2016-07-25T12:17:16.750Z,4108
2016-07-25T12:18:16.776Z,4324
2016-07-25T12:19:16.810Z,3952
2016-07-25T12:20:16.838Z,3464
2016-07-25T12:21:16.870Z,2716
2016-07-25T12:22:16.902Z,2648
2016-07-25T12:23:16.927Z,1972
2016-07-25T12:24:16.958Z,2592
2016-07-25T12:25:16.986Z,1968
2016-07-25T12:26:17.017Z,2044
2016-07-25T12:27:17.057Z,2224
2016-07-25T12:28:17.082Z,2456
2016-07-25T12:29:17.119Z,2240
2016-07-25T12:30:17.133Z,2496
2016-07-25T12:31:17.166Z,2528
2016-07-25T12:32:17.193Z,3164
2016-07-25T12:33:17.227Z,2760
2016-07-25T12:34:17.954Z,2252
2016-07-25T12:35:17.286Z,3180
2016-07-25T12:36:17.468Z,3272
2016-07-25T12:37:17.341Z,3504
2016-07-25T12:38:17.377Z,3396
2016-07-25T12:39:17.407Z,2968
2016-07-25T12:40:17.438Z,2588
2016-07-25T12:41:17.466Z,1664
2016-07-25T12:42:17.491Z,1756
2016-07-25T12:43:17.525Z,2560
2016-07-25T12:44:17.555Z,2596
2016-07-25T12:45:17.588Z,1840
2016-07-25T12:46:17.615Z,2560
2016-07-25T12:47:17.642Z,2488
2016-07-25T12:48:17.678Z,2520
2016-07-25T12:49:17.712Z,2616
2016-07-25T12:50:17.734Z,2424
2016-07-25T12:51:17.765Z,2220
2016-07-25T12:52:17.796Z,2108
2016-07-25T12:53:18.526Z,2040
2016-07-25T12:54:17.865Z,2028
2016-07-25T12:55:17.889Z,1984
2016-07-25T12:56:17.912Z,2016
2016-07-25T12:57:17.942Z,2020
2016-07-25T12:58:17.972Z,2048
2016-07-25T12:59:17.997Z,2124
2016-07-25T13:00:18.032Z,2168
2016-07-25T13:01:18.061Z,1444
2016-07-25T13:02:18.092Z,2328
2016-07-25T13:03:18.122Z,2504
2016-07-25T13:04:18.156Z,2644
2016-07-25T13:05:18.182Z,2548
2016-07-25T13:06:18.210Z,2444
2016-07-25T13:07:18.243Z,1528
2016-07-25T13:08:18.272Z,2484
2016-07-25T13:09:18.298Z,2552
2016-07-25T13:10:18.330Z,2524
2016-07-25T13:11:18.357Z,2572
2016-07-25T13:12:18.391Z,2800
2016-07-25T13:13:18.416Z,3008
2016-07-25T13:14:18.446Z,3012
2016-07-25T13:15:18.479Z,2996
2016-07-25T13:16:18.508Z,2732
2016-07-25T13:17:18.536Z,2772
2016-07-25T13:18:18.563Z,3108
2016-07-25T13:19:18.597Z,3644
2016-07-25T13:20:18.627Z,3408
2016-07-25T13:21:18.653Z,3424
2016-07-25T13:22:18.686Z,3324
2016-07-25T13:23:18.711Z,3204
2016-07-25T13:24:18.745Z,3172
2016-07-25T13:25:18.770Z,3196
2016-07-25T13:26:18.807Z,3292
2016-07-25T13:27:18.833Z,3400
2016-07-25T13:28:18.863Z,3496
2016-07-25T13:29:18.892Z,3512
2016-07-25T13:30:18.920Z,3556
2016-07-25T13:31:18.954Z,3656
2016-07-25T13:32:18.978Z,3720
2016-07-25T13:33:19.014Z,3728
2016-07-25T13:34:19.320Z,3796
2016-07-25T13:35:19.072Z,3868
2016-07-25T13:36:19.098Z,3876
2016-07-25T13:37:19.138Z,3884
2016-07-25T13:38:19.160Z,4152
2016-07-25T13:39:19.207Z,3956
2016-07-25T13:40:19.219Z,3956
2016-07-25T13:41:19.255Z,3928
2016-07-25T13:42:19.294Z,3924
2016-07-25T13:43:19.311Z,3884
2016-07-25T13:44:19.342Z,3892
2016-07-25T13:45:19.368Z,3924
2016-07-25T13:46:19.401Z,3968
2016-07-25T13:47:19.434Z,4040
2016-07-25T13:48:19.463Z,4100
2016-07-25T13:49:19.494Z,4148
2016-07-25T13:50:19.520Z,4128
2016-07-25T13:51:19.553Z,4128
2016-07-25T13:52:19.584Z,4128
2016-07-25T13:53:19.611Z,4084
2016-07-25T13:54:19.643Z,4012
2016-07-25T13:55:19.680Z,3908
2016-07-25T13:56:19.699Z,3852
2016-07-25T13:57:19.734Z,3832
2016-07-25T13:58:19.765Z,3848
2016-07-25T13:59:19.798Z,3900
2016-07-25T14:00:19.825Z,3868
2016-07-25T14:01:19.855Z,3788
2016-07-25T14:02:19.883Z,3776
2016-07-25T14:03:19.915Z,3820
2016-07-25T14:04:19.943Z,3836
2016-07-25T14:05:19.973Z,3852
2016-07-25T14:06:20.009Z,3836
2016-07-25T14:07:20.031Z,3836
2016-07-25T14:08:20.061Z,3856
2016-07-25T14:09:20.100Z,3836
2016-07-25T14:10:20.122Z,3824
2016-07-25T14:11:20.153Z,3812
2016-07-25T14:12:20.180Z,3764
2016-07-25T14:13:20.208Z,3728
2016-07-25T14:14:20.944Z,3724
2016-07-25T14:15:20.272Z,3756
2016-07-25T14:16:20.312Z,3816
2016-07-25T14:17:20.334Z,3808
2016-07-25T14:18:20.357Z,3760
2016-07-25T14:19:20.393Z,3700
2016-07-25T14:20:20.422Z,3660
2016-07-25T14:21:20.452Z,3660
2016-07-25T14:22:20.490Z,3668
2016-07-25T14:23:20.526Z,3644
2016-07-25T14:24:20.544Z,3608
2016-07-25T14:25:20.578Z,3576
2016-07-25T14:26:20.603Z,3540
2016-07-25T14:27:20.628Z,3488
2016-07-25T14:28:20.662Z,3432
2016-07-25T14:29:20.695Z,3448
2016-07-25T14:30:20.723Z,3468
2016-07-25T14:31:20.758Z,3476
2016-07-25T14:32:20.786Z,3532
2016-07-25T14:33:20.830Z,3580
2016-07-25T14:34:20.841Z,3588
2016-07-25T14:35:20.876Z,3608
2016-07-25T14:36:20.953Z,3652
2016-07-25T14:37:20.939Z,3708
2016-07-25T14:38:20.975Z,3708
2016-07-25T14:39:20.995Z,3692
2016-07-25T14:40:21.026Z,3672
2016-07-25T14:41:21.054Z,3704
2016-07-25T14:42:21.089Z,3708
2016-07-25T14:43:21.115Z,3696
2016-07-25T14:44:21.150Z,3696
2016-07-25T14:45:21.176Z,3764
2016-07-25T14:46:21.208Z,3712
2016-07-25T14:47:21.235Z,3656
2016-07-25T14:48:21.272Z,3616
2016-07-25T14:49:21.296Z,3580
2016-07-25T14:50:21.331Z,3560
2016-07-25T14:51:21.359Z,3532
2016-07-25T14:52:21.392Z,3508
2016-07-25T14:53:21.418Z,3496
2016-07-25T14:54:21.450Z,3480
2016-07-25T14:55:21.481Z,3452
2016-07-25T14:56:21.507Z,3424
2016-07-25T14:57:21.543Z,3432
2016-07-25T14:58:21.567Z,3416
2016-07-25T14:59:21.615Z,3408
2016-07-25T15:00:21.634Z,3384
2016-07-25T15:01:21.668Z,3348
2016-07-25T15:02:21.693Z,3328
2016-07-25T15:03:21.722Z,3332
2016-07-25T15:04:21.755Z,3356
2016-07-25T15:05:21.783Z,3376
2016-07-25T15:06:21.819Z,3432
2016-07-25T15:07:21.842Z,3428
2016-07-25T15:08:21.873Z,3392
2016-07-25T15:09:21.905Z,3420
2016-07-25T15:10:21.936Z,3452
2016-07-25T15:11:21.966Z,3468
2016-07-25T15:12:21.996Z,3452
2016-07-25T15:13:22.028Z,3440
2016-07-25T15:14:22.060Z,3432
2016-07-25T15:15:22.084Z,3412
2016-07-25T15:16:22.118Z,3412
2016-07-25T15:17:22.147Z,3392
2016-07-25T15:18:22.174Z,3364
2016-07-25T15:19:22.218Z,3328
2016-07-25T15:20:22.236Z,3264
2016-07-25T15:21:22.270Z,3204
2016-07-25T15:22:22.297Z,3168
2016-07-25T15:23:22.329Z,3176
2016-07-25T15:24:22.359Z,3184
2016-07-25T15:25:22.388Z,3180
2016-07-25T15:26:22.421Z,3136
2016-07-25T15:27:22.448Z,3096
2016-07-25T15:28:22.483Z,3092
2016-07-25T15:29:22.509Z,3120
2016-07-25T15:30:22.543Z,3120
2016-07-25T15:31:22.569Z,3092
2016-07-25T15:32:22.616Z,3040
2016-07-25T15:33:22.629Z,2988
2016-07-25T15:34:22.675Z,2940
2016-07-25T15:35:22.690Z,2940
2016-07-25T15:36:22.775Z,2952
2016-07-25T15:37:22.754Z,2996
2016-07-25T15:38:22.785Z,3048
2016-07-25T15:39:22.816Z,3084
2016-07-25T15:40:22.846Z,3112
2016-07-25T15:41:22.874Z,3168
2016-07-25T15:42:22.908Z,3392
2016-07-25T15:43:22.937Z,3328
2016-07-25T15:44:22.966Z,3072
2016-07-25T15:45:22.994Z,2952
2016-07-25T15:46:23.025Z,2816
2016-07-25T15:48:23.086Z,2656
2016-07-25T15:49:23.117Z,2496
2016-07-25T15:50:23.159Z,2424
2016-07-25T15:51:23.178Z,2388
2016-07-25T15:52:23.207Z,2524
2016-07-25T15:53:23.242Z,2368
2016-07-25T15:54:23.268Z,2332
2016-07-25T15:55:23.305Z,2344
2016-07-25T15:56:23.329Z,2600
2016-07-25T15:57:23.364Z,2352
2016-07-25T15:58:23.389Z,2288
2016-07-25T15:59:23.425Z,2188
2016-07-25T16:00:23.454Z,2160
2016-07-25T16:01:23.483Z,2124
2016-07-25T16:02:23.525Z,2104
2016-07-25T16:03:23.544Z,2124
2016-07-25T16:04:23.571Z,2144
2016-07-25T16:05:23.606Z,2156
2016-07-25T16:06:23.642Z,2056
2016-07-25T16:07:23.665Z,2064
2016-07-25T16:08:23.700Z,2120
2016-07-25T16:09:23.723Z,2228
2016-07-25T16:10:23.756Z,2332
2016-07-25T16:11:23.788Z,2404
2016-07-25T16:12:23.820Z,2424
2016-07-25T16:13:23.843Z,2504
2016-07-25T16:14:23.881Z,2556
2016-07-25T16:15:24.603Z,2552
2016-07-25T16:16:23.941Z,2468
2016-07-25T16:17:23.980Z,2396
2016-07-25T16:18:23.998Z,2412
2016-07-25T16:19:24.029Z,2280
2016-07-25T16:20:24.058Z,2232
2016-07-25T16:21:24.087Z,2204
2016-07-25T16:22:24.116Z,2136
2016-07-25T16:23:24.150Z,2064
2016-07-25T16:24:24.175Z,1980
2016-07-25T16:25:24.211Z,1924
2016-07-25T16:26:24.239Z,1928
2016-07-25T16:27:24.271Z,1988
2016-07-25T16:28:24.306Z,2048
2016-07-25T16:29:24.331Z,2096
2016-07-25T16:30:24.359Z,2128
2016-07-25T16:31:24.392Z,2124
2016-07-25T16:33:24.458Z,2192
2016-07-25T16:34:24.478Z,2248
2016-07-25T16:35:24.513Z,2300
2016-07-25T16:36:25.741Z,2264
2016-07-25T16:37:24.584Z,2208
2016-07-25T16:38:24.598Z,2116
2016-07-25T16:39:24.629Z,2084
2016-07-25T16:40:24.659Z,2072
2016-07-25T16:41:24.692Z,2040
2016-07-25T16:42:24.717Z,1940
2016-07-25T16:43:24.757Z,1880
2016-07-25T16:44:24.782Z,1876
2016-07-25T16:45:25.510Z,1768
2016-07-25T16:46:24.844Z,1656
2016-07-25T16:47:24.887Z,1612
2016-07-25T16:48:24.905Z,1584
2016-07-25T16:49:24.932Z,1544
2016-07-25T16:50:24.963Z,1532
2016-07-25T16:51:24.992Z,1584
2016-07-25T16:52:25.026Z,1660
2016-07-25T16:53:25.051Z,1672
2016-07-25T16:54:25.086Z,1632
2016-07-25T16:55:25.113Z,1556
2016-07-25T16:56:25.157Z,1464
2016-07-25T16:57:25.174Z,1452
2016-07-25T16:58:25.206Z,1336
2016-07-25T16:59:25.232Z,1256
2016-07-25T17:00:25.267Z,1204
2016-07-25T17:01:25.296Z,1264
2016-07-25T17:02:25.323Z,1352
2016-07-25T17:03:25.355Z,1312
2016-07-25T17:04:25.385Z,1232
2016-07-25T17:05:25.413Z,1288
2016-07-25T17:06:25.444Z,1408
2016-07-25T17:07:25.473Z,1532
2016-07-25T17:08:25.505Z,1596
2016-07-25T17:09:25.533Z,1608
2016-07-25T17:10:25.565Z,1584
2016-07-25T17:11:25.594Z,1572
2016-07-25T17:12:25.625Z,1612
2016-07-25T17:13:25.660Z,1656
2016-07-25T17:14:25.682Z,1664
2016-07-25T17:15:25.711Z,1680
2016-07-25T17:16:25.744Z,1664
2016-07-25T17:17:25.786Z,1652
2016-07-25T17:18:25.805Z,1660
2016-07-25T17:19:25.829Z,1628
2016-07-25T17:20:25.864Z,1572
2016-07-25T17:21:25.893Z,1536
2016-07-25T17:22:25.921Z,1568
2016-07-25T17:23:25.957Z,1544
2016-07-25T17:24:25.982Z,1492
2016-07-25T17:25:26.025Z,1504
2016-07-25T17:26:26.040Z,1484
2016-07-25T17:27:26.802Z,1460
2016-07-25T17:28:26.103Z,1452
2016-07-25T17:29:26.143Z,1468
2016-07-25T17:30:26.168Z,1464
2016-07-25T17:31:26.191Z,1576
2016-07-25T17:33:26.253Z,1472
2016-07-25T17:34:26.282Z,1388
2016-07-25T17:35:26.311Z,1364
2016-07-25T17:36:26.395Z,1340
2016-07-25T17:37:26.373Z,1296
2016-07-25T17:38:26.402Z,1268
2016-07-25T17:39:26.440Z,1240
2016-07-25T17:40:26.460Z,1288
2016-07-25T17:41:26.498Z,1176
2016-07-25T17:42:26.527Z,1204
2016-07-25T17:43:26.558Z,1168
2016-07-25T17:44:26.583Z,1168
2016-07-25T17:45:26.618Z,1168
2016-07-25T17:46:26.642Z,1180
2016-07-25T17:48:26.700Z,1220
2016-07-25T17:49:26.731Z,1260
2016-07-25T17:50:26.763Z,1236
2016-07-25T17:51:26.788Z,1192
2016-07-25T17:52:26.820Z,1096
2016-07-25T17:53:26.849Z,1152
2016-07-25T17:54:26.879Z,1212
2016-07-25T17:55:26.910Z,1188
2016-07-25T17:56:26.935Z,1192
2016-07-25T17:57:26.968Z,1208
2016-07-25T17:58:27.005Z,1180
2016-07-25T17:59:27.028Z,1104
2016-07-25T18:00:27.062Z,1100
2016-07-25T18:01:27.084Z,1088
2016-07-25T18:03:27.147Z,1152
2016-07-25T18:04:27.178Z,1172
2016-07-25T18:05:27.202Z,1164
2016-07-25T18:06:27.233Z,1136
2016-07-25T18:07:27.267Z,1132
2016-07-25T18:08:27.298Z,1120
2016-07-25T18:09:27.329Z,1104
2016-07-25T18:10:27.355Z,1068
2016-07-25T18:11:27.383Z,1024
2016-07-25T18:12:27.420Z,984
2016-07-25T18:13:27.444Z,952
2016-07-25T18:14:27.472Z,924
2016-07-25T18:15:27.516Z,884
2016-07-25T18:16:27.535Z,844
2016-07-25T18:18:27.591Z,808
2016-07-25T18:19:27.624Z,804
2016-07-25T18:20:27.650Z,800
2016-07-25T18:21:27.683Z,796
2016-07-25T18:22:27.710Z,780
2016-07-25T18:23:27.741Z,764
2016-07-25T18:24:27.771Z,756
2016-07-25T18:25:27.800Z,748
2016-07-25T18:26:27.829Z,752
2016-07-25T18:27:27.863Z,748
2016-07-25T18:28:27.899Z,720
2016-07-25T18:29:27.920Z,712
2016-07-25T18:30:27.957Z,692
2016-07-25T18:31:27.977Z,688
2016-07-25T18:33:28.038Z,692
2016-07-25T18:34:28.077Z,692
2016-07-25T18:35:28.095Z,672
2016-07-25T18:36:28.177Z,644
2016-07-25T18:37:28.154Z,612
2016-07-25T18:38:28.188Z,576
2016-07-25T18:39:28.215Z,540
2016-07-25T18:40:28.243Z,516
2016-07-25T18:41:28.276Z,512
2016-07-25T18:42:28.303Z,504
2016-07-25T18:43:28.335Z,492
2016-07-25T18:44:28.365Z,468
2016-07-25T18:45:28.391Z,444
2016-07-25T18:46:28.423Z,424
2016-07-25T18:48:28.482Z,404
2016-07-25T18:49:28.508Z,396
2016-07-25T18:50:28.547Z,384
2016-07-25T18:51:28.567Z,368
2016-07-25T18:52:28.600Z,352
2016-07-25T18:53:28.637Z,332
2016-07-25T18:54:28.653Z,316
2016-07-25T18:55:28.696Z,304
2016-07-25T18:56:28.716Z,288
2016-07-25T18:57:28.747Z,272
2016-07-25T18:58:28.775Z,260
2016-07-25T18:59:28.806Z,248
2016-07-25T19:00:28.834Z,240
2016-07-25T19:01:28.861Z,228
2016-07-25T19:03:28.921Z,212
2016-07-25T19:04:28.954Z,208
2016-07-25T19:05:28.982Z,196
2016-07-25T19:06:29.035Z,192
2016-07-25T19:07:29.042Z,188
2016-07-25T19:08:29.068Z,180
2016-07-25T19:09:29.105Z,172
2016-07-25T19:10:29.130Z,164
2016-07-25T19:11:29.157Z,156
2016-07-25T19:12:29.187Z,152
2016-07-25T19:13:29.217Z,144
2016-07-25T19:14:29.245Z,140
2016-07-25T19:15:29.272Z,128
2016-07-25T19:16:29.305Z,124
2016-07-25T19:18:29.364Z,112
2016-07-25T19:19:29.390Z,104
2016-07-25T19:20:29.422Z,100
2016-07-25T19:21:29.453Z,92
2016-07-25T19:22:29.478Z,88
2016-07-25T19:23:30.215Z,84
2016-07-25T19:24:29.545Z,80
2016-07-25T19:25:29.567Z,80
2016-07-25T19:26:29.597Z,76
2016-07-25T19:27:29.622Z,76
2016-07-25T19:28:29.653Z,72
2016-07-25T19:29:29.688Z,68
2016-07-25T19:30:29.712Z,64
2016-07-25T19:31:29.742Z,60
2016-07-25T19:33:29.810Z,52
2016-07-25T19:34:29.826Z,48
2016-07-25T19:35:29.857Z,48
2016-07-25T19:36:29.886Z,40
2016-07-25T19:37:29.914Z,40
2016-07-25T19:38:29.941Z,36
2016-07-25T19:39:29.972Z,36
2016-07-25T19:40:30.003Z,28
2016-07-25T19:41:30.027Z,24
2016-07-25T19:42:30.057Z,24
2016-07-25T19:43:30.088Z,24
2016-07-25T19:44:30.117Z,20
2016-07-25T19:45:30.144Z,20
2016-07-25T19:46:30.173Z,16
2016-07-25T19:48:30.236Z,12
2016-07-25T19:49:30.263Z,8
2016-07-25T19:50:30.289Z,8
2016-07-25T19:51:30.315Z,8
2016-07-25T19:52:30.346Z,8
2016-07-25T19:53:30.373Z,8
2016-07-25T19:54:30.403Z,4
2016-07-25T19:55:30.432Z,8
2016-07-25T19:56:30.464Z,4
2016-07-25T19:57:30.489Z,4
2016-07-25T19:58:30.518Z,4
2016-07-25T19:59:30.547Z,4
2016-07-25T20:00:30.571Z,4
2016-07-25T20:01:30.600Z,4
2016-07-25T20:03:30.655Z,4
2016-07-25T20:04:30.689Z,4
2016-07-25T20:05:31.418Z,0
2016-07-25T20:06:30.741Z,0
2016-07-25T20:07:30.771Z,0
2016-07-25T20:08:30.796Z,0
2016-07-25T20:09:30.833Z,0
2016-07-25T20:10:30.856Z,0
2016-07-25T20:11:30.886Z,0
2016-07-25T20:12:30.913Z,0
2016-07-25T20:13:30.940Z,0
2016-07-25T20:14:30.979Z,0
2016-07-25T20:15:31.007Z,0